sensor_id;sensor_type;location;lat;lon;timestamp;P1;durP1;ratioP1;P2;durP2;ratioP2
47599;SDS011;33323;52.124;6.018;2023-06-14T00:00:54;3.63;;;1.95;;
47599;SDS011;33323;52.124;6.018;2023-06-14T00:03:22;4.93;;;2.28;;
47599;SDS011;33323;52.124;6.018;2023-06-14T00:05:51;3.95;;;1.73;;
47599;SDS011;33323;52.124;6.018;2023-06-14T00:08:18;3.42;;;1.98;;
47599;SDS011;33323;52.124;6.018;2023-06-14T00:10:47;3.35;;;2.40;;
47599;SDS011;33323;52.124;6.018;2023-06-14T00:13:14;6.35;;;2.00;;
47599;SDS011;33323;52.124;6.018;2023-06-14T00:15:41;5.18;;;2.17;;
47599;SDS011;33323;52.124;6.018;2023-06-14T00:18:09;4.95;;;2.83;;
47599;SDS011;33323;52.124;6.018;2023-06-14T00:20:38;3.55;;;2.10;;
47599;SDS011;33323;52.124;6.018;2023-06-14T00:23:05;3.55;;;2.20;;
47599;SDS011;33323;52.124;6.018;2023-06-14T00:25:32;3.08;;;1.88;;
47599;SDS011;33323;52.124;6.018;2023-06-14T00:28:00;3.33;;;2.13;;
47599;SDS011;33323;52.124;6.018;2023-06-14T00:30:27;4.20;;;2.38;;
47599;SDS011;33323;52.124;6.018;2023-06-14T00:32:57;3.17;;;2.00;;
47599;SDS011;33323;52.124;6.018;2023-06-14T00:35:24;5.25;;;2.10;;
47599;SDS011;33323;52.124;6.018;2023-06-14T00:37:52;3.33;;;2.10;;
47599;SDS011;33323;52.124;6.018;2023-06-14T00:40:21;4.25;;;2.13;;
47599;SDS011;33323;52.124;6.018;2023-06-14T00:42:48;3.40;;;2.20;;
47599;SDS011;33323;52.124;6.018;2023-06-14T00:45:15;5.80;;;2.30;;
47599;SDS011;33323;52.124;6.018;2023-06-14T00:47:43;6.13;;;2.40;;
47599;SDS011;33323;52.124;6.018;2023-06-14T00:50:12;3.60;;;2.08;;
47599;SDS011;33323;52.124;6.018;2023-06-14T00:52:39;4.90;;;2.25;;
47599;SDS011;33323;52.124;6.018;2023-06-14T00:55:07;5.63;;;2.67;;
47599;SDS011;33323;52.124;6.018;2023-06-14T00:57:34;4.95;;;2.25;;
47599;SDS011;33323;52.124;6.018;2023-06-14T01:00:05;5.82;;;1.95;;
47599;SDS011;33323;52.124;6.018;2023-06-14T01:02:36;5.43;;;3.10;;
47599;SDS011;33323;52.124;6.018;2023-06-14T01:05:08;4.18;;;2.30;;
47599;SDS011;33323;52.124;6.018;2023-06-14T01:07:45;3.80;;;2.17;;
47599;SDS011;33323;52.124;6.018;2023-06-14T01:13:32;3.88;;;2.10;;
47599;SDS011;33323;52.124;6.018;2023-06-14T01:16:05;3.65;;;2.15;;
47599;SDS011;33323;52.124;6.018;2023-06-14T01:18:34;4.15;;;2.03;;
47599;SDS011;33323;52.124;6.018;2023-06-14T01:21:01;7.05;;;2.10;;
47599;SDS011;33323;52.124;6.018;2023-06-14T01:23:32;4.65;;;2.17;;
47599;SDS011;33323;52.124;6.018;2023-06-14T01:26:00;3.05;;;1.92;;
47599;SDS011;33323;52.124;6.018;2023-06-14T01:28:30;4.28;;;2.38;;
47599;SDS011;33323;52.124;6.018;2023-06-14T01:31:00;3.75;;;2.17;;
47599;SDS011;33323;52.124;6.018;2023-06-14T01:33:32;4.20;;;2.75;;
47599;SDS011;33323;52.124;6.018;2023-06-14T01:36:01;4.95;;;2.20;;
47599;SDS011;33323;52.124;6.018;2023-06-14T01:38:29;3.35;;;2.20;;
47599;SDS011;33323;52.124;6.018;2023-06-14T01:40:58;3.33;;;1.95;;
47599;SDS011;33323;52.124;6.018;2023-06-14T01:43:26;4.20;;;2.55;;
47599;SDS011;33323;52.124;6.018;2023-06-14T01:45:56;4.10;;;2.00;;
47599;SDS011;33323;52.124;6.018;2023-06-14T01:48:26;4.15;;;2.30;;
47599;SDS011;33323;52.124;6.018;2023-06-14T01:50:53;4.60;;;2.17;;
47599;SDS011;33323;52.124;6.018;2023-06-14T01:53:20;4.28;;;2.03;;
47599;SDS011;33323;52.124;6.018;2023-06-14T01:55:47;4.13;;;1.88;;
47599;SDS011;33323;52.124;6.018;2023-06-14T01:58:15;5.90;;;2.70;;
47599;SDS011;33323;52.124;6.018;2023-06-14T02:00:46;4.88;;;2.35;;
47599;SDS011;33323;52.124;6.018;2023-06-14T02:03:14;6.43;;;2.25;;
47599;SDS011;33323;52.124;6.018;2023-06-14T02:05:42;4.75;;;2.08;;
47599;SDS011;33323;52.124;6.018;2023-06-14T02:08:09;3.08;;;2.28;;
47599;SDS011;33323;52.124;6.018;2023-06-14T02:10:36;6.05;;;2.22;;
47599;SDS011;33323;52.124;6.018;2023-06-14T02:13:03;4.28;;;2.00;;
47599;SDS011;33323;52.124;6.018;2023-06-14T02:15:31;5.55;;;2.08;;
47599;SDS011;33323;52.124;6.018;2023-06-14T02:18:04;10.95;;;3.10;;
47599;SDS011;33323;52.124;6.018;2023-06-14T02:20:32;3.58;;;1.48;;
47599;SDS011;33323;52.124;6.018;2023-06-14T02:22:59;6.57;;;1.80;;
47599;SDS011;33323;52.124;6.018;2023-06-14T02:25:30;4.70;;;2.30;;
47599;SDS011;33323;52.124;6.018;2023-06-14T02:27:57;3.30;;;1.55;;
47599;SDS011;33323;52.124;6.018;2023-06-14T02:30:24;9.52;;;2.70;;
47599;SDS011;33323;52.124;6.018;2023-06-14T02:32:55;7.88;;;2.53;;
47599;SDS011;33323;52.124;6.018;2023-06-14T02:35:23;3.88;;;2.20;;
47599;SDS011;33323;52.124;6.018;2023-06-14T02:37:54;5.10;;;2.17;;
47599;SDS011;33323;52.124;6.018;2023-06-14T02:40:22;4.93;;;2.97;;
47599;SDS011;33323;52.124;6.018;2023-06-14T02:42:49;6.45;;;2.33;;
47599;SDS011;33323;52.124;6.018;2023-06-14T02:45:17;5.97;;;2.58;;
47599;SDS011;33323;52.124;6.018;2023-06-14T02:47:44;4.63;;;2.20;;
47599;SDS011;33323;52.124;6.018;2023-06-14T02:50:12;4.97;;;2.22;;
47599;SDS011;33323;52.124;6.018;2023-06-14T02:52:40;2.65;;;2.03;;
47599;SDS011;33323;52.124;6.018;2023-06-14T02:55:08;6.80;;;2.30;;
47599;SDS011;33323;52.124;6.018;2023-06-14T02:57:36;4.40;;;2.17;;
47599;SDS011;33323;52.124;6.018;2023-06-14T03:00:05;7.32;;;2.78;;
47599;SDS011;33323;52.124;6.018;2023-06-14T03:02:36;5.20;;;2.20;;
47599;SDS011;33323;52.124;6.018;2023-06-14T03:05:04;5.55;;;2.08;;
47599;SDS011;33323;52.124;6.018;2023-06-14T03:07:34;4.30;;;2.30;;
47599;SDS011;33323;52.124;6.018;2023-06-14T03:10:03;6.78;;;2.42;;
47599;SDS011;33323;52.124;6.018;2023-06-14T03:12:30;5.97;;;1.73;;
47599;SDS011;33323;52.124;6.018;2023-06-14T03:14:57;3.58;;;2.00;;
47599;SDS011;33323;52.124;6.018;2023-06-14T03:17:32;3.88;;;2.05;;
47599;SDS011;33323;52.124;6.018;2023-06-14T03:20:01;5.07;;;2.30;;
47599;SDS011;33323;52.124;6.018;2023-06-14T03:22:29;3.78;;;2.15;;
47599;SDS011;33323;52.124;6.018;2023-06-14T03:24:58;3.70;;;2.90;;
47599;SDS011;33323;52.124;6.018;2023-06-14T03:27:26;5.40;;;2.72;;
47599;SDS011;33323;52.124;6.018;2023-06-14T03:29:55;6.53;;;2.15;;
47599;SDS011;33323;52.124;6.018;2023-06-14T03:32:23;10.48;;;2.83;;
47599;SDS011;33323;52.124;6.018;2023-06-14T03:34:51;7.18;;;2.72;;
47599;SDS011;33323;52.124;6.018;2023-06-14T03:37:21;19.58;;;2.67;;
47599;SDS011;33323;52.124;6.018;2023-06-14T03:39:48;11.90;;;2.78;;
47599;SDS011;33323;52.124;6.018;2023-06-14T03:42:20;4.25;;;2.70;;
47599;SDS011;33323;52.124;6.018;2023-06-14T03:44:48;7.30;;;2.20;;
47599;SDS011;33323;52.124;6.018;2023-06-14T03:47:16;8.73;;;2.83;;
47599;SDS011;33323;52.124;6.018;2023-06-14T03:49:43;4.40;;;2.15;;
47599;SDS011;33323;52.124;6.018;2023-06-14T03:52:10;4.60;;;2.42;;
47599;SDS011;33323;52.124;6.018;2023-06-14T03:54:39;6.70;;;2.55;;
47599;SDS011;33323;52.124;6.018;2023-06-14T03:57:27;5.55;;;2.38;;
47599;SDS011;33323;52.124;6.018;2023-06-14T03:59:57;3.88;;;2.13;;
47599;SDS011;33323;52.124;6.018;2023-06-14T04:02:25;4.68;;;2.33;;
47599;SDS011;33323;52.124;6.018;2023-06-14T04:04:55;4.28;;;1.88;;
47599;SDS011;33323;52.124;6.018;2023-06-14T04:07:22;5.72;;;2.25;;
47599;SDS011;33323;52.124;6.018;2023-06-14T04:09:49;4.43;;;2.67;;
47599;SDS011;33323;52.124;6.018;2023-06-14T04:12:17;6.53;;;2.75;;
47599;SDS011;33323;52.124;6.018;2023-06-14T04:14:44;6.22;;;2.15;;
47599;SDS011;33323;52.124;6.018;2023-06-14T04:17:11;5.63;;;2.20;;
47599;SDS011;33323;52.124;6.018;2023-06-14T04:19:42;4.15;;;2.58;;
47599;SDS011;33323;52.124;6.018;2023-06-14T04:22:09;8.93;;;2.33;;
47599;SDS011;33323;52.124;6.018;2023-06-14T04:24:37;6.82;;;2.33;;
47599;SDS011;33323;52.124;6.018;2023-06-14T04:27:05;7.20;;;1.98;;
47599;SDS011;33323;52.124;6.018;2023-06-14T04:29:34;4.20;;;2.38;;
47599;SDS011;33323;52.124;6.018;2023-06-14T04:32:05;4.95;;;2.20;;
47599;SDS011;33323;52.124;6.018;2023-06-14T04:34:37;4.97;;;2.08;;
47599;SDS011;33323;52.124;6.018;2023-06-14T04:37:07;4.53;;;2.28;;
47599;SDS011;33323;52.124;6.018;2023-06-14T04:39:37;4.38;;;2.40;;
47599;SDS011;33323;52.124;6.018;2023-06-14T04:42:04;5.53;;;2.10;;
47599;SDS011;33323;52.124;6.018;2023-06-14T04:44:34;6.55;;;2.13;;
47599;SDS011;33323;52.124;6.018;2023-06-14T04:47:03;7.82;;;2.55;;
47599;SDS011;33323;52.124;6.018;2023-06-14T04:49:31;4.10;;;2.00;;
47599;SDS011;33323;52.124;6.018;2023-06-14T04:51:59;9.48;;;2.55;;
47599;SDS011;33323;52.124;6.018;2023-06-14T04:54:33;4.50;;;2.15;;
47599;SDS011;33323;52.124;6.018;2023-06-14T04:57:07;5.20;;;2.35;;
47599;SDS011;33323;52.124;6.018;2023-06-14T04:59:35;8.77;;;1.98;;
47599;SDS011;33323;52.124;6.018;2023-06-14T05:02:02;5.38;;;2.15;;
47599;SDS011;33323;52.124;6.018;2023-06-14T05:04:31;6.13;;;1.98;;
47599;SDS011;33323;52.124;6.018;2023-06-14T05:06:59;5.13;;;2.35;;
47599;SDS011;33323;52.124;6.018;2023-06-14T05:09:28;7.60;;;1.90;;
47599;SDS011;33323;52.124;6.018;2023-06-14T05:11:55;4.63;;;2.20;;
47599;SDS011;33323;52.124;6.018;2023-06-14T05:14:24;5.53;;;2.15;;
47599;SDS011;33323;52.124;6.018;2023-06-14T05:16:52;5.50;;;1.98;;
47599;SDS011;33323;52.124;6.018;2023-06-14T05:19:19;8.20;;;2.17;;
47599;SDS011;33323;52.124;6.018;2023-06-14T05:21:47;4.63;;;1.80;;
47599;SDS011;33323;52.124;6.018;2023-06-14T05:24:14;3.58;;;1.90;;
47599;SDS011;33323;52.124;6.018;2023-06-14T05:26:43;6.90;;;1.98;;
47599;SDS011;33323;52.124;6.018;2023-06-14T05:29:10;7.13;;;2.15;;
47599;SDS011;33323;52.124;6.018;2023-06-14T05:31:38;4.45;;;1.95;;
47599;SDS011;33323;52.124;6.018;2023-06-14T05:34:05;4.57;;;2.25;;
47599;SDS011;33323;52.124;6.018;2023-06-14T05:36:32;5.70;;;2.15;;
47599;SDS011;33323;52.124;6.018;2023-06-14T05:38:59;6.05;;;1.70;;
47599;SDS011;33323;52.124;6.018;2023-06-14T05:41:29;2.53;;;1.85;;
47599;SDS011;33323;52.124;6.018;2023-06-14T05:43:56;7.00;;;1.80;;
47599;SDS011;33323;52.124;6.018;2023-06-14T05:46:23;5.68;;;1.95;;
47599;SDS011;33323;52.124;6.018;2023-06-14T05:48:52;5.72;;;2.42;;
47599;SDS011;33323;52.124;6.018;2023-06-14T05:51:21;6.00;;;3.00;;
47599;SDS011;33323;52.124;6.018;2023-06-14T05:53:51;3.65;;;1.50;;
47599;SDS011;33323;52.124;6.018;2023-06-14T05:56:19;7.47;;;1.75;;
47599;SDS011;33323;52.124;6.018;2023-06-14T05:58:46;4.78;;;1.98;;
47599;SDS011;33323;52.124;6.018;2023-06-14T06:01:14;4.25;;;1.45;;
47599;SDS011;33323;52.124;6.018;2023-06-14T06:03:41;4.07;;;1.60;;
47599;SDS011;33323;52.124;6.018;2023-06-14T06:06:12;3.63;;;1.55;;
47599;SDS011;33323;52.124;6.018;2023-06-14T06:08:40;3.28;;;1.55;;
47599;SDS011;33323;52.124;6.018;2023-06-14T06:11:07;3.15;;;1.55;;
47599;SDS011;33323;52.124;6.018;2023-06-14T06:13:34;4.13;;;2.22;;
47599;SDS011;33323;52.124;6.018;2023-06-14T06:16:02;6.45;;;1.55;;
47599;SDS011;33323;52.124;6.018;2023-06-14T06:18:30;8.95;;;2.67;;
47599;SDS011;33323;52.124;6.018;2023-06-14T06:20:57;5.03;;;1.90;;
47599;SDS011;33323;52.124;6.018;2023-06-14T06:23:24;9.38;;;2.35;;
47599;SDS011;33323;52.124;6.018;2023-06-14T06:25:51;3.03;;;1.45;;
47599;SDS011;33323;52.124;6.018;2023-06-14T06:28:18;7.80;;;1.52;;
47599;SDS011;33323;52.124;6.018;2023-06-14T06:30:45;12.60;;;1.88;;
47599;SDS011;33323;52.124;6.018;2023-06-14T06:33:12;4.70;;;1.80;;
47599;SDS011;33323;52.124;6.018;2023-06-14T06:35:40;2.20;;;1.52;;
47599;SDS011;33323;52.124;6.018;2023-06-14T06:38:08;2.13;;;1.50;;
47599;SDS011;33323;52.124;6.018;2023-06-14T06:40:36;3.25;;;1.60;;
47599;SDS011;33323;52.124;6.018;2023-06-14T06:43:03;2.13;;;1.40;;
47599;SDS011;33323;52.124;6.018;2023-06-14T06:45:39;5.65;;;1.67;;
47599;SDS011;33323;52.124;6.018;2023-06-14T06:48:06;2.42;;;1.23;;
47599;SDS011;33323;52.124;6.018;2023-06-14T06:50:36;2.00;;;1.25;;
47599;SDS011;33323;52.124;6.018;2023-06-14T06:53:03;3.35;;;1.42;;
47599;SDS011;33323;52.124;6.018;2023-06-14T06:55:30;2.88;;;1.10;;
47599;SDS011;33323;52.124;6.018;2023-06-14T06:57:57;4.20;;;1.30;;
47599;SDS011;33323;52.124;6.018;2023-06-14T07:00:25;5.68;;;1.60;;
47599;SDS011;33323;52.124;6.018;2023-06-14T07:02:54;2.15;;;0.90;;
47599;SDS011;33323;52.124;6.018;2023-06-14T07:05:21;3.80;;;1.23;;
47599;SDS011;33323;52.124;6.018;2023-06-14T07:07:49;4.05;;;1.10;;
47599;SDS011;33323;52.124;6.018;2023-06-14T07:10:17;2.63;;;1.15;;
47599;SDS011;33323;52.124;6.018;2023-06-14T07:12:44;1.73;;;1.13;;
47599;SDS011;33323;52.124;6.018;2023-06-14T07:15:12;3.53;;;1.20;;
47599;SDS011;33323;52.124;6.018;2023-06-14T07:17:40;5.13;;;0.98;;
47599;SDS011;33323;52.124;6.018;2023-06-14T07:20:08;2.15;;;0.80;;
47599;SDS011;33323;52.124;6.018;2023-06-14T07:22:40;6.65;;;1.10;;
47599;SDS011;33323;52.124;6.018;2023-06-14T07:25:08;3.63;;;0.95;;
47599;SDS011;33323;52.124;6.018;2023-06-14T07:27:42;3.17;;;1.13;;
47599;SDS011;33323;52.124;6.018;2023-06-14T07:30:11;1.15;;;0.63;;
47599;SDS011;33323;52.124;6.018;2023-06-14T07:32:39;1.52;;;0.90;;
47599;SDS011;33323;52.124;6.018;2023-06-14T07:35:06;5.38;;;0.95;;
47599;SDS011;33323;52.124;6.018;2023-06-14T07:37:35;5.32;;;0.82;;
47599;SDS011;33323;52.124;6.018;2023-06-14T07:40:03;3.13;;;1.10;;
47599;SDS011;33323;52.124;6.018;2023-06-14T07:42:34;2.10;;;1.30;;
47599;SDS011;33323;52.124;6.018;2023-06-14T07:45:04;3.58;;;1.05;;
47599;SDS011;33323;52.124;6.018;2023-06-14T07:47:33;3.35;;;1.00;;
47599;SDS011;33323;52.124;6.018;2023-06-14T07:50:01;1.92;;;0.88;;
47599;SDS011;33323;52.124;6.018;2023-06-14T07:52:30;4.07;;;1.17;;
47599;SDS011;33323;52.124;6.018;2023-06-14T07:54:58;1.67;;;0.85;;
47599;SDS011;33323;52.124;6.018;2023-06-14T07:57:25;1.23;;;0.95;;
47599;SDS011;33323;52.124;6.018;2023-06-14T07:59:52;1.58;;;0.88;;
47599;SDS011;33323;52.124;6.018;2023-06-14T08:02:20;2.13;;;1.08;;
47599;SDS011;33323;52.124;6.018;2023-06-14T08:04:47;4.93;;;1.10;;
47599;SDS011;33323;52.124;6.018;2023-06-14T08:07:14;1.95;;;1.02;;
47599;SDS011;33323;52.124;6.018;2023-06-14T08:09:42;3.13;;;0.90;;
47599;SDS011;33323;52.124;6.018;2023-06-14T08:12:09;3.97;;;1.15;;
47599;SDS011;33323;52.124;6.018;2023-06-14T08:14:37;3.65;;;1.15;;
47599;SDS011;33323;52.124;6.018;2023-06-14T08:17:06;2.03;;;0.70;;
47599;SDS011;33323;52.124;6.018;2023-06-14T08:19:36;2.83;;;0.82;;
47599;SDS011;33323;52.124;6.018;2023-06-14T08:22:03;1.58;;;0.85;;
47599;SDS011;33323;52.124;6.018;2023-06-14T08:24:31;5.22;;;1.52;;
47599;SDS011;33323;52.124;6.018;2023-06-14T08:26:59;5.80;;;1.30;;
47599;SDS011;33323;52.124;6.018;2023-06-14T08:29:27;1.55;;;0.80;;
47599;SDS011;33323;52.124;6.018;2023-06-14T08:31:57;2.67;;;1.02;;
47599;SDS011;33323;52.124;6.018;2023-06-14T08:34:25;1.55;;;1.20;;
47599;SDS011;33323;52.124;6.018;2023-06-14T08:36:52;1.38;;;1.00;;
47599;SDS011;33323;52.124;6.018;2023-06-14T08:39:20;1.73;;;1.13;;
47599;SDS011;33323;52.124;6.018;2023-06-14T08:41:48;2.42;;;0.93;;
47599;SDS011;33323;52.124;6.018;2023-06-14T08:44:17;1.80;;;0.90;;
47599;SDS011;33323;52.124;6.018;2023-06-14T08:46:45;1.98;;;0.90;;
47599;SDS011;33323;52.124;6.018;2023-06-14T08:49:15;1.27;;;0.93;;
47599;SDS011;33323;52.124;6.018;2023-06-14T08:51:43;9.00;;;2.10;;
47599;SDS011;33323;52.124;6.018;2023-06-14T08:54:11;1.80;;;1.00;;
47599;SDS011;33323;52.124;6.018;2023-06-14T08:56:39;3.10;;;1.08;;
47599;SDS011;33323;52.124;6.018;2023-06-14T08:59:08;3.90;;;1.52;;
47599;SDS011;33323;52.124;6.018;2023-06-14T09:01:36;3.25;;;0.88;;
47599;SDS011;33323;52.124;6.018;2023-06-14T09:04:04;2.38;;;0.93;;
47599;SDS011;33323;52.124;6.018;2023-06-14T09:06:32;4.15;;;0.80;;
47599;SDS011;33323;52.124;6.018;2023-06-14T09:08:59;1.13;;;0.80;;
47599;SDS011;33323;52.124;6.018;2023-06-14T09:11:27;3.28;;;0.90;;
47599;SDS011;33323;52.124;6.018;2023-06-14T09:13:55;2.88;;;0.93;;
47599;SDS011;33323;52.124;6.018;2023-06-14T09:16:22;2.45;;;1.00;;
47599;SDS011;33323;52.124;6.018;2023-06-14T09:18:49;7.55;;;0.90;;
47599;SDS011;33323;52.124;6.018;2023-06-14T09:21:17;6.15;;;1.00;;
47599;SDS011;33323;52.124;6.018;2023-06-14T09:23:45;1.50;;;0.80;;
47599;SDS011;33323;52.124;6.018;2023-06-14T09:26:15;3.40;;;1.17;;
47599;SDS011;33323;52.124;6.018;2023-06-14T09:28:46;2.58;;;0.95;;
47599;SDS011;33323;52.124;6.018;2023-06-14T09:31:16;4.57;;;1.67;;
47599;SDS011;33323;52.124;6.018;2023-06-14T09:33:45;1.85;;;1.00;;
47599;SDS011;33323;52.124;6.018;2023-06-14T09:36:21;5.70;;;1.13;;
47599;SDS011;33323;52.124;6.018;2023-06-14T09:39:00;4.97;;;1.80;;
47599;SDS011;33323;52.124;6.018;2023-06-14T09:44:03;1.05;;;0.60;;
47599;SDS011;33323;52.124;6.018;2023-06-14T09:46:42;2.47;;;0.82;;
47599;SDS011;33323;52.124;6.018;2023-06-14T09:49:11;2.67;;;1.05;;
47599;SDS011;33323;52.124;6.018;2023-06-14T09:51:45;5.70;;;0.98;;
47599;SDS011;33323;52.124;6.018;2023-06-14T09:54:19;2.45;;;0.80;;
47599;SDS011;33323;52.124;6.018;2023-06-14T09:56:51;5.00;;;1.20;;
47599;SDS011;33323;52.124;6.018;2023-06-14T09:59:19;1.20;;;0.63;;
47599;SDS011;33323;52.124;6.018;2023-06-14T10:01:57;1.65;;;0.73;;
47599;SDS011;33323;52.124;6.018;2023-06-14T10:04:27;3.95;;;0.93;;
47599;SDS011;33323;52.124;6.018;2023-06-14T10:06:57;1.60;;;0.77;;
47599;SDS011;33323;52.124;6.018;2023-06-14T10:09:25;6.07;;;0.82;;
47599;SDS011;33323;52.124;6.018;2023-06-14T10:11:54;2.20;;;0.65;;
47599;SDS011;33323;52.124;6.018;2023-06-14T10:14:23;3.95;;;1.08;;
47599;SDS011;33323;52.124;6.018;2023-06-14T10:17:00;1.85;;;1.10;;
47599;SDS011;33323;52.124;6.018;2023-06-14T10:19:46;3.17;;;0.70;;
47599;SDS011;33323;52.124;6.018;2023-06-14T10:22:26;4.45;;;0.82;;
47599;SDS011;33323;52.124;6.018;2023-06-14T10:24:59;1.58;;;0.65;;
47599;SDS011;33323;52.124;6.018;2023-06-14T10:27:27;2.17;;;1.10;;
47599;SDS011;33323;52.124;6.018;2023-06-14T10:32:25;4.88;;;0.73;;
47599;SDS011;33323;52.124;6.018;2023-06-14T10:34:59;4.50;;;1.00;;
47599;SDS011;33323;52.124;6.018;2023-06-14T10:37:32;1.27;;;0.80;;
47599;SDS011;33323;52.124;6.018;2023-06-14T10:40:00;3.50;;;0.73;;
47599;SDS011;33323;52.124;6.018;2023-06-14T10:42:31;3.22;;;0.70;;
47599;SDS011;33323;52.124;6.018;2023-06-14T10:45:00;2.42;;;0.90;;
47599;SDS011;33323;52.124;6.018;2023-06-14T10:47:34;3.47;;;0.93;;
47599;SDS011;33323;52.124;6.018;2023-06-14T10:50:08;2.42;;;0.85;;
47599;SDS011;33323;52.124;6.018;2023-06-14T10:52:38;0.90;;;0.68;;
47599;SDS011;33323;52.124;6.018;2023-06-14T10:55:13;2.38;;;0.85;;
47599;SDS011;33323;52.124;6.018;2023-06-14T10:57:48;3.60;;;1.05;;
47599;SDS011;33323;52.124;6.018;2023-06-14T11:00:23;3.17;;;0.68;;
47599;SDS011;33323;52.124;6.018;2023-06-14T11:06:13;3.55;;;1.25;;
47599;SDS011;33323;52.124;6.018;2023-06-14T11:11:47;2.53;;;0.98;;
47599;SDS011;33323;52.124;6.018;2023-06-14T11:14:15;1.67;;;0.98;;
47599;SDS011;33323;52.124;6.018;2023-06-14T11:16:47;3.00;;;0.80;;
47599;SDS011;33323;52.124;6.018;2023-06-14T11:19:18;2.92;;;0.80;;
47599;SDS011;33323;52.124;6.018;2023-06-14T11:21:49;5.93;;;1.20;;
47599;SDS011;33323;52.124;6.018;2023-06-14T11:24:17;0.90;;;0.70;;
47599;SDS011;33323;52.124;6.018;2023-06-14T11:26:47;3.15;;;0.90;;
47599;SDS011;33323;52.124;6.018;2023-06-14T11:29:15;1.23;;;0.73;;
47599;SDS011;33323;52.124;6.018;2023-06-14T11:31:43;2.28;;;1.00;;
47599;SDS011;33323;52.124;6.018;2023-06-14T11:34:12;2.28;;;0.77;;
47599;SDS011;33323;52.124;6.018;2023-06-14T11:36:40;3.58;;;1.40;;
47599;SDS011;33323;52.124;6.018;2023-06-14T11:39:08;2.33;;;0.85;;
47599;SDS011;33323;52.124;6.018;2023-06-14T11:41:37;5.20;;;0.90;;
47599;SDS011;33323;52.124;6.018;2023-06-14T11:44:07;1.95;;;0.80;;
47599;SDS011;33323;52.124;6.018;2023-06-14T11:46:35;2.17;;;1.38;;
47599;SDS011;33323;52.124;6.018;2023-06-14T11:49:03;4.63;;;0.93;;
47599;SDS011;33323;52.124;6.018;2023-06-14T11:51:34;2.88;;;0.80;;
47599;SDS011;33323;52.124;6.018;2023-06-14T11:54:03;13.93;;;1.65;;
47599;SDS011;33323;52.124;6.018;2023-06-14T11:56:32;1.90;;;0.80;;
47599;SDS011;33323;52.124;6.018;2023-06-14T11:59:03;1.50;;;0.70;;
47599;SDS011;33323;52.124;6.018;2023-06-14T12:01:35;2.42;;;0.90;;
47599;SDS011;33323;52.124;6.018;2023-06-14T12:04:05;5.57;;;1.23;;
47599;SDS011;33323;52.124;6.018;2023-06-14T12:06:33;2.42;;;1.10;;
47599;SDS011;33323;52.124;6.018;2023-06-14T12:09:03;2.47;;;1.20;;
47599;SDS011;33323;52.124;6.018;2023-06-14T12:11:40;2.60;;;0.80;;
47599;SDS011;33323;52.124;6.018;2023-06-14T12:14:08;4.72;;;0.80;;
47599;SDS011;33323;52.124;6.018;2023-06-14T12:16:37;5.80;;;0.70;;
47599;SDS011;33323;52.124;6.018;2023-06-14T12:19:14;4.50;;;2.05;;
47599;SDS011;33323;52.124;6.018;2023-06-14T12:21:46;3.83;;;0.90;;
47599;SDS011;33323;52.124;6.018;2023-06-14T12:24:16;1.55;;;0.63;;
47599;SDS011;33323;52.124;6.018;2023-06-14T12:26:43;5.45;;;1.02;;
47599;SDS011;33323;52.124;6.018;2023-06-14T12:29:12;2.20;;;0.70;;
47599;SDS011;33323;52.124;6.018;2023-06-14T12:31:40;2.17;;;1.00;;
47599;SDS011;33323;52.124;6.018;2023-06-14T12:34:08;2.17;;;0.90;;
47599;SDS011;33323;52.124;6.018;2023-06-14T12:36:36;1.75;;;0.60;;
47599;SDS011;33323;52.124;6.018;2023-06-14T12:39:08;4.53;;;0.70;;
47599;SDS011;33323;52.124;6.018;2023-06-14T12:41:36;2.35;;;0.88;;
47599;SDS011;33323;52.124;6.018;2023-06-14T12:44:03;4.47;;;1.10;;
47599;SDS011;33323;52.124;6.018;2023-06-14T12:46:31;2.13;;;0.73;;
47599;SDS011;33323;52.124;6.018;2023-06-14T12:48:59;1.25;;;0.60;;
47599;SDS011;33323;52.124;6.018;2023-06-14T12:51:27;4.45;;;0.70;;
47599;SDS011;33323;52.124;6.018;2023-06-14T12:53:54;4.05;;;0.82;;
47599;SDS011;33323;52.124;6.018;2023-06-14T12:56:22;0.80;;;0.60;;
47599;SDS011;33323;52.124;6.018;2023-06-14T12:58:50;2.22;;;0.77;;
47599;SDS011;33323;52.124;6.018;2023-06-14T13:01:18;0.82;;;0.55;;
47599;SDS011;33323;52.124;6.018;2023-06-14T13:03:46;0.95;;;0.50;;
47599;SDS011;33323;52.124;6.018;2023-06-14T13:06:14;1.10;;;0.50;;
47599;SDS011;33323;52.124;6.018;2023-06-14T13:08:42;2.85;;;0.80;;
47599;SDS011;33323;52.124;6.018;2023-06-14T13:11:10;2.90;;;0.60;;
47599;SDS011;33323;52.124;6.018;2023-06-14T13:13:38;18.20;;;1.95;;
47599;SDS011;33323;52.124;6.018;2023-06-14T13:16:05;6.82;;;0.70;;
47599;SDS011;33323;52.124;6.018;2023-06-14T13:18:33;5.05;;;0.60;;
47599;SDS011;33323;52.124;6.018;2023-06-14T13:21:00;1.58;;;0.60;;
47599;SDS011;33323;52.124;6.018;2023-06-14T13:23:28;1.88;;;1.20;;
47599;SDS011;33323;52.124;6.018;2023-06-14T13:25:56;2.08;;;0.70;;
47599;SDS011;33323;52.124;6.018;2023-06-14T13:28:23;5.40;;;1.20;;
47599;SDS011;33323;52.124;6.018;2023-06-14T13:30:51;2.33;;;0.50;;
47599;SDS011;33323;52.124;6.018;2023-06-14T13:33:19;2.40;;;0.63;;
47599;SDS011;33323;52.124;6.018;2023-06-14T13:35:46;3.17;;;0.63;;
47599;SDS011;33323;52.124;6.018;2023-06-14T13:38:15;2.90;;;0.55;;
47599;SDS011;33323;52.124;6.018;2023-06-14T13:40:43;1.17;;;0.73;;
47599;SDS011;33323;52.124;6.018;2023-06-14T13:43:11;1.20;;;0.60;;
47599;SDS011;33323;52.124;6.018;2023-06-14T13:45:38;6.15;;;5.57;;
47599;SDS011;33323;52.124;6.018;2023-06-14T13:48:05;2.13;;;1.95;;
47599;SDS011;33323;52.124;6.018;2023-06-14T13:50:33;3.63;;;1.95;;
47599;SDS011;33323;52.124;6.018;2023-06-14T13:53:00;2.28;;;0.80;;
47599;SDS011;33323;52.124;6.018;2023-06-14T13:55:28;10.05;;;2.05;;
47599;SDS011;33323;52.124;6.018;2023-06-14T13:57:55;19.90;;;2.22;;
47599;SDS011;33323;52.124;6.018;2023-06-14T14:00:23;4.00;;;1.10;;
47599;SDS011;33323;52.124;6.018;2023-06-14T14:02:50;6.70;;;1.00;;
47599;SDS011;33323;52.124;6.018;2023-06-14T14:05:18;10.80;;;3.08;;
47599;SDS011;33323;52.124;6.018;2023-06-14T14:07:47;1.60;;;0.90;;
47599;SDS011;33323;52.124;6.018;2023-06-14T14:10:14;3.38;;;1.23;;
47599;SDS011;33323;52.124;6.018;2023-06-14T14:12:42;10.95;;;1.38;;
47599;SDS011;33323;52.124;6.018;2023-06-14T14:15:09;1.08;;;0.70;;
47599;SDS011;33323;52.124;6.018;2023-06-14T14:17:40;4.43;;;1.50;;
47599;SDS011;33323;52.124;6.018;2023-06-14T14:20:08;4.65;;;1.05;;
47599;SDS011;33323;52.124;6.018;2023-06-14T14:22:38;5.05;;;0.80;;
47599;SDS011;33323;52.124;6.018;2023-06-14T14:25:06;4.22;;;0.80;;
47599;SDS011;33323;52.124;6.018;2023-06-14T14:27:34;1.02;;;0.70;;
47599;SDS011;33323;52.124;6.018;2023-06-14T14:30:03;3.00;;;0.80;;
47599;SDS011;33323;52.124;6.018;2023-06-14T14:32:31;4.82;;;1.17;;
47599;SDS011;33323;52.124;6.018;2023-06-14T14:34:59;1.50;;;0.70;;
47599;SDS011;33323;52.124;6.018;2023-06-14T14:37:26;1.77;;;0.60;;
47599;SDS011;33323;52.124;6.018;2023-06-14T14:39:54;2.00;;;0.70;;
47599;SDS011;33323;52.124;6.018;2023-06-14T14:42:21;2.45;;;0.73;;
47599;SDS011;33323;52.124;6.018;2023-06-14T14:44:49;2.97;;;0.60;;
47599;SDS011;33323;52.124;6.018;2023-06-14T14:47:16;3.85;;;0.60;;
47599;SDS011;33323;52.124;6.018;2023-06-14T14:49:44;1.58;;;0.85;;
47599;SDS011;33323;52.124;6.018;2023-06-14T14:52:11;3.60;;;0.90;;
47599;SDS011;33323;52.124;6.018;2023-06-14T14:54:49;3.22;;;0.88;;
47599;SDS011;33323;52.124;6.018;2023-06-14T14:57:18;1.42;;;0.60;;
47599;SDS011;33323;52.124;6.018;2023-06-14T14:59:45;1.38;;;0.75;;
47599;SDS011;33323;52.124;6.018;2023-06-14T15:02:13;6.63;;;0.73;;
47599;SDS011;33323;52.124;6.018;2023-06-14T15:04:41;0.60;;;0.50;;
47599;SDS011;33323;52.124;6.018;2023-06-14T15:07:08;3.25;;;0.82;;
47599;SDS011;33323;52.124;6.018;2023-06-14T15:09:38;3.60;;;0.73;;
47599;SDS011;33323;52.124;6.018;2023-06-14T15:12:05;3.22;;;0.68;;